Time;durP1;ratioP1;P1;durP2;ratioP2;P2;SDS_P1;SDS_P2;PMS_P1;PMS_P2;Temp;Humidity;BMP_temperature;BMP_pressure;BME280_temperature;BME280_humidity;BME280_pressure;Samples;Min_cycle;Max_cycle;Signal;HPM_P1;HPM_P2
2023/02/04 00:01:54;;;;;;;7.30;1.27;;;;;;;3.50;100.00;101736.91;4994020;28;20460;-65
2023/02/04 00:04:20;;;;;;;20.53;1.27;;;;;;;3.51;100.00;101753.78;4994067;28;20441;-66
2023/02/04 00:06:47;;;;;;;5.27;1.10;;;;;;;3.51;100.00;101770.69;4993994;28;20523;-65
2023/02/04 00:09:15;;;;;;;4.90;0.97;;;;;;;3.49;100.00;101767.38;4994023;28;20457;-65
2023/02/04 00:11:43;;;;;;;5.07;1.00;;;;;;;3.45;100.00;101779.63;4993662;28;20491;-65
2023/02/04 00:14:10;;;;;;;5.13;1.03;;;;;;;3.50;100.00;101784.31;4993954;28;20449;-64
2023/02/04 00:16:37;;;;;;;5.20;1.17;;;;;;;3.43;100.00;101796.94;4993963;28;20445;-65
2023/02/04 00:19:04;;;;;;;6.30;1.20;;;;;;;3.41;100.00;101797.19;4993916;28;20448;-65
2023/02/04 00:21:30;;;;;;;6.43;1.30;;;;;;;3.39;100.00;101798.44;4993473;28;21006;-65
2023/02/04 00:23:57;;;;;;;4.63;1.03;;;;;;;3.46;100.00;101815.25;4993866;28;20535;-65
2023/02/04 00:26:23;;;;;;;5.20;1.10;;;;;;;3.35;100.00;101824.81;4993758;28;20489;-65
2023/02/04 00:28:51;;;;;;;14.20;1.67;;;;;;;3.27;100.00;101828.59;4993829;28;20540;-65
2023/02/04 00:31:18;;;;;;;8.50;1.23;;;;;;;3.32;100.00;101837.84;4993384;28;20473;-65
2023/02/04 00:33:45;;;;;;;4.67;0.80;;;;;;;3.31;100.00;101846.91;4993483;28;20946;-66
2023/02/04 00:36:11;;;;;;;4.73;0.80;;;;;;;3.23;100.00;101846.19;4993447;28;20443;-66
2023/02/04 00:38:38;;;;;;;4.50;0.80;;;;;;;3.22;100.00;101852.56;4993758;28;20531;-65
2023/02/04 00:41:05;;;;;;;5.47;0.90;;;;;;;3.19;100.00;101871.75;4993640;28;20547;-66
2023/02/04 00:43:32;;;;;;;4.60;0.97;;;;;;;3.22;100.00;101873.97;4993699;28;20858;-65
2023/02/04 00:46:00;;;;;;;4.20;0.63;;;;;;;3.23;100.00;101885.50;4993357;28;20489;-66
2023/02/04 00:48:27;;;;;;;5.47;1.07;;;;;;;3.29;100.00;101906.06;4993341;28;20485;-65
2023/02/04 00:50:53;;;;;;;4.90;0.93;;;;;;;3.24;100.00;101920.09;4993661;28;20511;-65
2023/02/04 00:53:20;;;;;;;5.30;1.00;;;;;;;3.32;100.00;101935.06;4997417;28;20535;-65
2023/02/04 00:55:47;;;;;;;5.97;0.70;;;;;;;3.24;100.00;101935.34;4997228;28;20922;-65
2023/02/04 00:58:13;;;;;;;4.43;0.70;;;;;;;3.12;100.00;101943.25;4997451;28;20447;-65
2023/02/04 01:00:40;;;;;;;6.57;0.77;;;;;;;3.08;100.00;101960.78;4997296;28;20539;-65
2023/02/04 01:03:08;;;;;;;5.10;0.90;;;;;;;3.02;100.00;101958.97;4997073;28;20445;-66
2023/02/04 01:05:35;;;;;;;5.00;1.03;;;;;;;3.02;100.00;101975.03;4997293;28;20925;-66
2023/02/04 01:08:01;;;;;;;5.33;1.00;;;;;;;2.99;100.00;101988.84;4997268;28;20444;-66
2023/02/04 01:10:28;;;;;;;4.50;0.70;;;;;;;2.99;100.00;101994.19;4997142;28;20448;-66
2023/02/04 01:12:55;;;;;;;6.67;1.00;;;;;;;2.99;100.00;102003.03;4997178;28;20455;-66
2023/02/04 01:15:22;;;;;;;5.23;1.13;;;;;;;2.92;100.00;102010.31;4997126;28;20449;-65
2023/02/04 01:17:48;;;;;;;4.23;0.70;;;;;;;2.95;100.00;102019.75;4997121;28;20452;-66
2023/02/04 01:20:17;;;;;;;4.33;0.73;;;;;;;2.96;100.00;102021.38;4997046;28;20537;-65
2023/02/04 01:22:44;;;;;;;4.17;0.70;;;;;;;2.94;100.00;102031.50;4996674;28;20467;-66
2023/02/04 01:25:10;;;;;;;6.47;1.63;;;;;;;2.84;100.00;102044.53;4996575;28;20441;-66
2023/02/04 01:27:37;;;;;;;4.20;0.60;;;;;;;2.82;100.00;102059.94;4996953;28;20476;-66
2023/02/04 01:30:05;;;;;;;4.30;0.60;;;;;;;2.74;99.88;102056.47;4996551;28;20461;-66
2023/02/04 01:32:32;;;;;;;5.10;0.77;;;;;;;2.76;100.00;102056.28;4996691;28;20460;-66
2023/02/04 01:34:58;;;;;;;4.10;0.70;;;;;;;2.68;100.00;102053.84;4996824;28;20764;-66
2023/02/04 01:37:26;;;;;;;4.67;0.60;;;;;;;2.65;100.00;102063.09;4996470;28;20448;-66
2023/02/04 01:39:53;;;;;;;5.33;0.60;;;;;;;2.64;100.00;102066.00;4996707;28;20441;-65
2023/02/04 01:42:20;;;;;;;4.80;0.80;;;;;;;2.70;100.00;102100.75;4996257;28;20547;-66
2023/02/04 01:44:47;;;;;;;3.90;0.40;;;;;;;2.72;100.00;102104.03;4996612;28;20491;-66
2023/02/04 01:47:13;;;;;;;4.20;0.50;;;;;;;2.73;100.00;102099.50;4996488;28;20480;-66
2023/02/04 01:49:40;;;;;;;7.77;1.07;;;;;;;2.63;99.78;102109.84;4996527;28;20448;-65
2023/02/04 01:52:07;;;;;;;4.40;0.90;;;;;;;2.55;100.00;102129.59;4996247;28;20479;-66
2023/02/04 01:54:35;;;;;;;5.37;0.97;;;;;;;2.49;100.00;102131.25;4996066;28;20466;-66
2023/02/04 01:57:03;;;;;;;4.33;0.87;;;;;;;2.53;100.00;102143.19;4996123;28;20525;-66
2023/02/04 01:59:30;;;;;;;6.67;0.80;;;;;;;2.57;100.00;102148.94;4996317;28;20441;-66
2023/02/04 02:01:56;;;;;;;5.23;0.80;;;;;;;2.62;99.96;102157.16;4995746;28;20910;-66
2023/02/04 02:04:29;;;;;;;4.60;0.70;;;;;;;2.56;99.64;102157.16;4994966;28;20540;-65
2023/02/04 02:06:58;;;;;;;4.20;0.60;;;;;;;2.56;100.00;102168.69;4995880;28;20479;-66
2023/02/04 02:09:25;;;;;;;5.20;1.00;;;;;;;2.47;99.78;102183.28;4996131;28;20445;-66
2023/02/04 02:11:53;;;;;;;5.00;1.00;;;;;;;2.52;99.83;102183.50;4995712;28;20840;-64
2023/02/04 02:14:20;;;;;;;4.40;0.80;;;;;;;2.51;100.00;102190.69;4996068;28;20839;-66
2023/02/04 02:16:46;;;;;;;4.73;0.70;;;;;;;2.51;100.00;102192.56;4995906;28;20445;-64
2023/02/04 02:19:20;;;;;;;4.43;0.80;;;;;;;2.48;100.00;102196.47;4995921;28;20528;-65
2023/02/04 02:21:55;;;;;;;4.37;0.70;;;;;;;2.39;100.00;102194.19;4995636;28;20465;-66
2023/02/04 02:24:28;;;;;;;4.20;0.63;;;;;;;2.46;100.00;102203.88;4995915;28;20455;-66
2023/02/04 02:26:56;;;;;;;4.80;1.00;;;;;;;2.43;100.00;102208.81;4995768;28;20485;-65
2023/02/04 02:29:23;;;;;;;6.10;0.80;;;;;;;2.47;100.00;102205.50;4995714;28;20447;-65
2023/02/04 02:31:50;;;;;;;4.10;0.60;;;;;;;2.44;99.88;102224.66;4995659;28;20459;-65
2023/02/04 02:34:17;;;;;;;5.60;0.63;;;;;;;2.45;100.00;102226.31;4995676;28;20445;-65
2023/02/04 02:36:44;;;;;;;4.40;0.70;;;;;;;2.41;100.00;102224.25;4995487;28;20437;-65
2023/02/04 02:39:11;;;;;;;4.30;0.63;;;;;;;2.30;100.00;102247.06;4995581;28;20449;-65
2023/02/04 02:41:38;;;;;;;4.50;0.63;;;;;;;2.25;100.00;102250.34;4995484;28;20465;-66
2023/02/04 02:44:05;;;;;;;4.10;0.50;;;;;;;2.22;100.00;102252.63;4995505;28;20895;-66
2023/02/04 02:46:32;;;;;;;4.37;0.83;;;;;;;2.14;100.00;102255.50;4995413;28;20482;-66
2023/02/04 02:48:59;;;;;;;4.13;0.70;;;;;;;2.11;100.00;102264.72;4995445;28;20444;-66
2023/02/04 02:51:26;;;;;;;4.80;0.70;;;;;;;2.10;100.00;102264.94;4995301;28;20465;-66
2023/02/04 02:53:53;;;;;;;4.77;0.97;;;;;;;2.20;100.00;102268.84;4994861;28;20540;-66
2023/02/04 02:56:20;;;;;;;5.70;0.80;;;;;;;2.16;100.00;102266.78;4995263;28;20540;-66
2023/02/04 02:58:48;;;;;;;4.47;0.70;;;;;;;2.16;100.00;102272.94;4995249;28;20471;-66
2023/02/04 03:01:15;;;;;;;4.90;0.77;;;;;;;2.12;100.00;102284.25;4995126;28;20548;-66
2023/02/04 03:03:45;;;;;;;6.40;0.90;;;;;;;2.14;100.00;102291.06;4995131;28;20465;-66
2023/02/04 03:06:15;;;;;;;4.37;0.80;;;;;;;2.03;100.00;102292.44;4995050;28;20484;-66
2023/02/04 03:08:43;;;;;;;8.13;0.70;;;;;;;2.12;100.00;102302.97;4995113;28;20450;-66
2023/02/04 03:11:10;;;;;;;4.77;0.80;;;;;;;2.19;100.00;102304.63;4994662;28;21060;-66
2023/02/04 03:13:37;;;;;;;5.27;1.03;;;;;;;2.15;100.00;102313.25;4994755;28;20468;-67
2023/02/04 03:16:06;;;;;;;4.20;0.70;;;;;;;2.06;100.00;102317.97;4994935;28;20456;-66
2023/02/04 03:18:35;;;;;;;6.63;0.77;;;;;;;2.03;100.00;102334.38;4994903;28;20485;-66
2023/02/04 03:21:05;;;;;;;5.30;1.03;;;;;;;2.06;100.00;102338.53;4994722;28;20468;-66
2023/02/04 03:23:33;;;;;;;4.40;0.70;;;;;;;2.05;100.00;102356.41;4994808;28;20453;-66
2023/02/04 03:26:00;;;;;;;4.63;0.70;;;;;;;2.00;100.00;102359.69;4994681;28;20457;-66
2023/02/04 03:28:26;;;;;;;5.13;0.87;;;;;;;2.02;100.00;102368.31;4994715;28;20450;-66
2023/02/04 03:30:55;;;;;;;4.20;0.70;;;;;;;1.90;100.00;102382.44;4994618;28;20473;-66
2023/02/04 03:33:23;;;;;;;5.70;0.70;;;;;;;1.92;100.00;102375.88;4994621;28;20540;-66
2023/02/04 03:35:50;;;;;;;4.10;0.60;;;;;;;1.93;100.00;102404.25;4994588;28;20453;-66
2023/02/04 03:38:17;;;;;;;4.83;0.77;;;;;;;1.91;100.00;102410.81;4994172;28;21020;-66
2023/02/04 03:40:43;;;;;;;4.57;0.60;;;;;;;1.88;100.00;102419.22;4994437;28;21148;-65
2023/02/04 03:43:10;;;;;;;13.00;0.90;;;;;;;1.83;100.00;102421.66;4994430;28;20448;-66
2023/02/04 03:45:37;;;;;;;4.83;0.60;;;;;;;1.83;100.00;102425.16;4994451;28;20461;-66
2023/02/04 03:48:04;;;;;;;5.43;0.90;;;;;;;1.71;100.00;102432.06;4994006;28;21076;-66
2023/02/04 03:50:32;;;;;;;4.57;0.70;;;;;;;1.64;100.00;102437.38;4994251;28;20499;-66
2023/02/04 03:52:58;;;;;;;4.57;0.70;;;;;;;1.53;100.00;102456.59;4994279;28;20543;-66
2023/02/04 03:55:25;;;;;;;5.07;0.77;;;;;;;1.50;100.00;102455.13;4993888;28;20463;-64
2023/02/04 03:57:52;;;;;;;4.70;1.00;;;;;;;1.52;100.00;102452.28;4994215;28;20445;-66
2023/02/04 04:00:19;;;;;;;5.10;0.87;;;;;;;1.45;100.00;102457.56;4993872;28;20954;-66
2023/02/04 04:02:46;;;;;;;4.30;0.67;;;;;;;1.51;100.00;102464.81;4994003;28;20461;-66
2023/02/04 04:05:12;;;;;;;4.07;0.60;;;;;;;1.52;100.00;102465.63;4993979;28;20441;-66
2023/02/04 04:07:40;;;;;;;4.10;0.50;;;;;;;1.50;100.00;102483.69;4993994;28;20495;-66
2023/02/04 04:10:07;;;;;;;7.90;0.70;;;;;;;1.49;100.00;102479.38;4994036;28;20455;-66
2023/02/04 04:12:34;;;;;;;4.40;0.70;;;;;;;1.42;100.00;102483.84;4993640;28;20997;-66
2023/02/04 04:15:01;;;;;;;5.00;0.87;;;;;;;1.33;100.00;102493.00;4993982;28;20471;-66
2023/02/04 04:17:27;;;;;;;4.20;0.60;;;;;;;1.37;100.00;102499.59;4993918;28;20437;-66
2023/02/04 04:19:54;;;;;;;4.20;0.60;;;;;;;1.37;100.00;102507.59;4993918;28;20445;-65
2023/02/04 04:22:20;;;;;;;5.57;0.90;;;;;;;1.37;100.00;102504.94;4993802;28;20556;-66
2023/02/04 04:24:48;;;;;;;5.17;0.60;;;;;;;1.51;100.00;102520.91;4993570;28;21006;-66
2023/02/04 04:27:15;;;;;;;4.27;0.77;;;;;;;1.32;100.00;102524.19;4993113;28;20485;-66
2023/02/04 04:29:41;;;;;;;4.40;0.70;;;;;;;1.42;100.00;102534.56;4993524;28;20449;-66
2023/02/04 04:32:09;;;;;;;5.03;0.90;;;;;;;1.45;100.00;102536.84;4993434;28;21024;-66
2023/02/04 04:34:35;;;;;;;4.87;1.13;;;;;;;1.43;100.00;102550.41;4993751;28;20456;-65
2023/02/04 04:37:02;;;;;;;5.77;0.77;;;;;;;1.54;100.00;102549.03;5006768;23;20482;-67
2023/02/04 04:39:28;;;;;;;6.60;0.80;;;;;;;1.62;100.00;102559.59;4974485;28;20434;-68
2023/02/04 04:41:56;;;;;;;4.40;0.70;;;;;;;1.63;100.00;102563.91;4974013;28;20943;-68
2023/02/04 04:44:23;;;;;;;4.10;0.50;;;;;;;1.52;100.00;102578.63;4974318;28;20528;-69
2023/02/04 04:46:50;;;;;;;4.13;0.60;;;;;;;1.56;100.00;102580.91;4973575;28;21029;-69
2023/02/04 04:49:16;;;;;;;5.03;1.00;;;;;;;1.59;100.00;102584.00;4974422;28;20458;-67
2023/02/04 04:51:43;;;;;;;7.30;0.63;;;;;;;1.59;100.00;102596.53;4973932;28;20935;-69
2023/02/04 04:54:09;;;;;;;4.57;0.90;;;;;;;1.50;100.00;102601.19;4974370;28;20549;-67
2023/02/04 04:56:36;;;;;;;4.57;0.80;;;;;;;1.50;100.00;102606.50;4974222;28;20478;-66
2023/02/04 04:59:04;;;;;;;9.50;0.97;;;;;;;1.47;100.00;102617.59;4974223;28;20449;-69
2023/02/04 05:01:31;;;;;;;5.23;0.77;;;;;;;1.36;100.00;102615.41;4974431;28;20886;-68
2023/02/04 05:03:57;;;;;;;4.10;0.50;;;;;;;1.40;100.00;102627.38;4974178;28;20473;-69
2023/02/04 05:06:25;;;;;;;4.37;0.70;;;;;;;1.38;100.00;102632.09;4974096;28;20450;-69
2023/02/04 05:08:51;;;;;;;5.30;0.73;;;;;;;1.43;100.00;102632.34;4974097;28;20469;-68
2023/02/04 05:11:18;;;;;;;6.20;1.33;;;;;;;1.38;100.00;102640.91;4973926;28;20966;-67
2023/02/04 05:13:45;;;;;;;4.83;0.70;;;;;;;1.30;100.00;102653.56;4974118;28;20891;-67
2023/02/04 05:16:13;;;;;;;4.40;0.70;;;;;;;1.27;100.00;102646.72;4974009;28;20536;-68
2023/02/04 05:18:40;;;;;;;6.10;0.63;;;;;;;1.24;100.00;102645.28;4973638;28;20470;-67
2023/02/04 05:21:07;;;;;;;5.60;1.70;;;;;;;1.31;100.00;102655.19;4973662;28;21042;-68
2023/02/04 05:23:34;;;;;;;6.33;0.90;;;;;;;1.31;100.00;102663.22;4973677;28;20450;-67
2023/02/04 05:26:01;;;;;;;4.77;0.83;;;;;;;1.31;100.00;102663.22;4973960;28;20545;-67
2023/02/04 05:28:28;;;;;;;4.77;0.83;;;;;;;1.20;100.00;102668.03;4973809;28;20864;-67
2023/02/04 05:30:54;;;;;;;5.40;0.70;;;;;;;1.15;100.00;102677.59;4974022;28;20442;-67
2023/02/04 05:33:22;;;;;;;4.20;0.67;;;;;;;1.17;100.00;102687.06;4973977;28;20450;-67
2023/02/04 05:35:49;;;;;;;5.63;0.80;;;;;;;1.22;100.00;102681.16;4973613;28;20438;-67
2023/02/04 05:38:15;;;;;;;4.63;0.73;;;;;;;1.21;100.00;102692.88;4975649;28;21012;-66
2023/02/04 05:40:42;;;;;;;4.67;0.80;;;;;;;1.18;100.00;102702.06;4977028;28;20947;-67
2023/02/04 05:43:09;;;;;;;4.63;0.87;;;;;;;1.15;100.00;102702.47;4977268;28;20824;-67
2023/02/04 05:45:36;;;;;;;4.63;0.77;;;;;;;1.20;100.00;102715.25;4977230;28;20452;-66
2023/02/04 05:48:02;;;;;;;5.33;0.80;;;;;;;1.14;100.00;102722.13;4977098;28;20576;-65
2023/02/04 05:50:30;;;;;;;4.50;0.60;;;;;;;1.11;100.00;102730.53;4977131;28;20835;-68
2023/02/04 05:52:57;;;;;;;4.50;0.83;;;;;;;1.09;100.00;102727.19;4977061;28;20445;-67
2023/02/04 05:55:24;;;;;;;11.20;0.90;;;;;;;1.15;100.00;102734.47;4976998;28;20442;-67
2023/02/04 05:57:50;;;;;;;5.60;0.77;;;;;;;1.16;100.00;102743.31;4976467;28;20831;-67
2023/02/04 06:00:17;;;;;;;6.23;0.70;;;;;;;1.16;100.00;102748.66;4976674;28;20485;-67
2023/02/04 06:02:44;;;;;;;4.30;0.70;;;;;;;1.12;100.00;102750.84;4976915;28;20453;-67
2023/02/04 06:05:10;;;;;;;4.40;1.00;;;;;;;1.17;100.00;102759.13;4976552;28;20947;-68
2023/02/04 06:07:38;;;;;;;4.30;0.90;;;;;;;1.19;100.00;102765.09;4976407;28;20578;-68
2023/02/04 06:10:05;;;;;;;4.20;0.63;;;;;;;1.12;100.00;102777.53;4976410;28;20969;-68
2023/02/04 06:12:32;;;;;;;5.90;1.30;;;;;;;1.08;100.00;102778.91;4976507;28;20960;-68
2023/02/04 06:14:58;;;;;;;5.50;1.17;;;;;;;1.06;100.00;102780.94;4976764;28;20449;-67
2023/02/04 06:17:25;;;;;;;5.03;1.00;;;;;;;0.97;100.00;102785.56;4976643;28;20462;-68
2023/02/04 06:19:52;;;;;;;4.20;0.70;;;;;;;0.90;100.00;102797.13;4976646;28;20448;-67
2023/02/04 06:22:18;;;;;;;4.70;0.90;;;;;;;0.87;100.00;102792.97;4976567;28;20445;-68
2023/02/04 06:24:46;;;;;;;4.30;0.60;;;;;;;0.92;100.00;102800.41;4976177;28;20947;-67
2023/02/04 06:27:13;;;;;;;12.67;0.97;;;;;;;0.97;100.00;102793.56;4976345;28;20525;-67
2023/02/04 06:29:39;;;;;;;4.20;0.67;;;;;;;0.94;100.00;102806.41;4976733;28;20450;-67
2023/02/04 06:32:06;;;;;;;4.80;1.27;;;;;;;0.96;100.00;102807.88;4976339;28;20456;-67
2023/02/04 06:34:32;;;;;;;4.30;0.60;;;;;;;0.86;100.00;102809.16;4976288;28;20492;-67
2023/02/04 06:36:59;;;;;;;5.47;1.00;;;;;;;0.92;100.00;102824.44;4976031;28;20496;-67
2023/02/04 06:39:25;;;;;;;4.20;0.63;;;;;;;0.83;100.00;102812.19;4976169;28;20465;-66
2023/02/04 06:41:53;;;;;;;5.60;1.07;;;;;;;0.72;100.00;102811.63;4976272;28;20518;-67
2023/02/04 06:44:20;;;;;;;8.10;1.10;;;;;;;0.81;100.00;102819.56;4976120;28;20522;-66
2023/02/04 06:46:46;;;;;;;4.67;0.97;;;;;;;0.82;100.00;102815.88;4976046;28;20450;-67
2023/02/04 06:49:13;;;;;;;4.57;0.77;;;;;;;0.80;100.00;102812.53;4975376;28;20441;-66
2023/02/04 06:51:40;;;;;;;4.30;0.80;;;;;;;0.81;100.00;102815.03;4975770;28;20501;-66
2023/02/04 06:54:06;;;;;;;5.97;1.20;;;;;;;0.83;100.00;102804.19;4975999;28;20438;-67
2023/02/04 06:56:33;;;;;;;4.60;0.57;;;;;;;0.69;100.00;102809.31;4975815;28;20456;-68
2023/02/04 06:59:01;;;;;;;5.27;1.00;;;;;;;0.67;100.00;102816.66;4975566;28;20900;-67
2023/02/04 07:01:27;;;;;;;4.20;0.60;;;;;;;0.68;100.00;102820.16;4975494;28;20482;-67
2023/02/04 07:03:55;;;;;;;4.53;0.60;;;;;;;0.73;100.00;102825.78;4975869;28;20880;-67
2023/02/04 07:06:22;;;;;;;4.20;0.63;;;;;;;0.83;100.00;102826.34;4975397;28;20951;-67
2023/02/04 07:08:49;;;;;;;4.87;1.13;;;;;;;0.90;100.00;102839.81;4975556;28;20837;-65
2023/02/04 07:11:16;;;;;;;4.70;0.80;;;;;;;0.90;100.00;102845.97;4975602;28;20454;-64
2023/02/04 07:13:42;;;;;;;4.43;0.80;;;;;;;0.73;100.00;102842.59;4975971;28;20449;-68
2023/02/04 07:16:10;;;;;;;9.07;1.27;;;;;;;0.77;100.00;102842.25;4975773;28;20998;-65
2023/02/04 07:18:37;;;;;;;7.27;1.07;;;;;;;0.74;100.00;102851.44;4975397;28;20457;-65
2023/02/04 07:21:03;;;;;;;4.20;0.60;;;;;;;0.83;100.00;102855.69;4975463;28;20446;-65
2023/02/04 07:23:30;;;;;;;5.77;1.17;;;;;;;0.85;100.00;102860.88;4975526;28;20457;-65
2023/02/04 07:25:58;;;;;;;5.17;1.57;;;;;;;0.93;100.00;102876.78;4975357;28;20446;-64
2023/02/04 07:28:24;;;;;;;4.20;0.70;;;;;;;0.99;100.00;102870.72;4975180;28;20614;-65
2023/02/04 07:30:51;;;;;;;5.27;1.10;;;;;;;1.05;100.00;102878.00;4975236;28;20448;-64
2023/02/04 07:33:19;;;;;;;5.00;1.30;;;;;;;1.07;100.00;102878.66;4975142;28;20456;-64
2023/02/04 07:35:46;;;;;;;5.60;1.30;;;;;;;1.04;100.00;102884.38;4975114;28;20551;-65
2023/02/04 07:38:12;;;;;;;5.23;1.20;;;;;;;1.00;100.00;102886.56;4974779;28;20914;-65
2023/02/04 07:40:39;;;;;;;4.60;0.80;;;;;;;1.04;100.00;102891.53;4975055;28;20446;-65
2023/02/04 07:43:05;;;;;;;5.10;1.10;;;;;;;1.02;100.00;102897.06;4975096;28;20819;-66
2023/02/04 07:45:32;;;;;;;4.50;0.77;;;;;;;0.96;100.00;102900.44;4974766;28;20446;-65
2023/02/04 07:47:58;;;;;;;4.47;0.90;;;;;;;1.00;100.00;102902.56;4974825;28;20497;-62
2023/02/04 07:50:26;;;;;;;7.70;1.10;;;;;;;1.06;100.00;102908.19;4974919;28;20450;-65
2023/02/04 07:52:53;;;;;;;4.63;0.93;;;;;;;1.10;100.00;102915.66;4974529;28;20537;-65
2023/02/04 07:55:19;;;;;;;5.27;0.60;;;;;;;1.02;100.00;102915.75;4974831;28;20449;-65
2023/02/04 07:57:46;;;;;;;5.07;1.00;;;;;;;1.14;100.00;102924.13;4974765;28;20480;-65
2023/02/04 08:00:15;;;;;;;6.33;0.80;;;;;;;1.15;100.00;102928.44;4974373;28;20452;-66
2023/02/04 08:02:41;;;;;;;4.90;0.60;;;;;;;1.29;100.00;102934.88;4974361;28;20508;-64
2023/02/04 08:05:09;;;;;;;4.77;0.90;;;;;;;1.26;100.00;102936.03;4974707;28;20441;-65
2023/02/04 08:07:37;;;;;;;4.13;0.67;;;;;;;1.31;100.00;102944.34;4974514;28;20496;-65
2023/02/04 08:10:03;;;;;;;4.30;0.63;;;;;;;1.35;100.00;102955.50;4974654;28;20489;-67
2023/02/04 08:12:30;;;;;;;4.57;0.83;;;;;;;1.42;100.00;102956.44;4974624;28;20445;-67
2023/02/04 08:14:57;;;;;;;6.17;0.93;;;;;;;1.46;100.00;102969.25;4974394;28;20457;-67
2023/02/04 08:17:23;;;;;;;4.30;0.80;;;;;;;1.46;100.00;102965.72;4974575;28;20470;-67
2023/02/04 08:19:50;;;;;;;5.83;1.10;;;;;;;1.56;100.00;102968.97;4974362;28;20465;-67
2023/02/04 08:22:17;;;;;;;5.63;0.70;;;;;;;1.58;100.00;102972.28;4974607;28;20441;-66
2023/02/04 08:24:45;;;;;;;6.70;0.87;;;;;;;1.63;100.00;102977.06;4974546;28;20449;-68
2023/02/04 08:27:11;;;;;;;9.07;1.00;;;;;;;1.71;100.00;102975.16;4974392;28;20476;-68
2023/02/04 08:29:38;;;;;;;4.20;0.57;;;;;;;1.75;100.00;102984.47;4974419;28;20489;-68
2023/02/04 08:32:05;;;;;;;4.20;0.50;;;;;;;1.86;100.00;102990.34;4974158;28;20477;-69
2023/02/04 08:34:32;;;;;;;4.73;0.80;;;;;;;1.84;100.00;103003.09;4974403;28;20445;-68
2023/02/04 08:36:58;;;;;;;7.53;0.73;;;;;;;1.84;100.00;102997.75;4973969;28;20480;-67
2023/02/04 08:39:25;;;;;;;4.87;0.70;;;;;;;1.89;100.00;103001.53;4974197;28;20426;-67
2023/02/04 08:41:53;;;;;;;5.67;0.87;;;;;;;1.87;100.00;103000.06;4974277;28;20529;-68
2023/02/04 08:44:19;;;;;;;7.33;1.10;;;;;;;1.90;100.00;103005.84;4974128;28;20464;-68
2023/02/04 08:46:46;;;;;;;8.50;1.00;;;;;;;1.96;100.00;103001.63;4974301;28;20442;-68
2023/02/04 08:49:13;;;;;;;4.30;0.60;;;;;;;2.05;100.00;102999.69;4974182;28;20501;-68
2023/02/04 08:51:39;;;;;;;4.67;0.80;;;;;;;2.08;100.00;102999.31;4973931;28;20950;-64
2023/02/04 08:54:06;;;;;;;5.67;1.00;;;;;;;2.13;100.00;103004.97;4974048;28;20528;-69
2023/02/04 08:56:34;;;;;;;4.10;0.50;;;;;;;2.00;100.00;103005.59;4974082;28;20445;-68
2023/02/04 08:59:02;;;;;;;8.50;1.20;;;;;;;2.11;100.00;103010.47;4974175;28;20442;-67
2023/02/04 09:01:28;;;;;;;4.60;0.70;;;;;;;2.20;100.00;103012.03;4974067;28;20456;-68
2023/02/04 09:03:55;;;;;;;6.00;1.27;;;;;;;2.19;100.00;103015.72;4974031;28;20819;-68
2023/02/04 09:06:21;;;;;;;4.67;0.90;;;;;;;2.35;100.00;103017.38;4974124;28;20515;-67
2023/02/04 09:08:48;;;;;;;7.03;1.07;;;;;;;2.36;100.00;103018.22;4973843;28;20490;-67
2023/02/04 09:11:14;;;;;;;5.23;0.90;;;;;;;2.32;100.00;103022.28;4973982;28;20445;-67
2023/02/04 09:13:41;;;;;;;6.10;1.13;;;;;;;2.37;100.00;103031.38;4977259;28;20445;-67
2023/02/04 09:16:09;;;;;;;5.63;0.83;;;;;;;2.43;100.00;103035.97;4977672;28;20452;-68
2023/02/04 09:18:36;;;;;;;4.57;0.80;;;;;;;2.53;100.00;103046.41;4977232;28;20466;-68
2023/02/04 09:21:03;;;;;;;4.53;0.70;;;;;;;2.53;100.00;103038.41;4977533;28;20484;-68
2023/02/04 09:23:29;;;;;;;5.67;1.07;;;;;;;2.69;100.00;103040.84;4977562;28;20449;-68
2023/02/04 09:25:56;;;;;;;5.30;1.17;;;;;;;2.74;100.00;103049.13;4977475;28;20445;-68
2023/02/04 09:28:22;;;;;;;4.30;0.60;;;;;;;2.86;99.86;103051.34;4977041;28;20489;-65
2023/02/04 09:30:49;;;;;;;5.03;0.80;;;;;;;2.98;100.00;103055.19;4977479;28;20818;-68
2023/02/04 09:33:17;;;;;;;4.67;0.90;;;;;;;3.06;97.49;103057.75;4977375;28;20450;-65
2023/02/04 09:35:44;;;;;;;4.57;0.97;;;;;;;3.09;97.08;103065.38;4977156;28;20454;-65
2023/02/04 09:38:11;;;;;;;11.90;1.07;;;;;;;3.07;96.38;103064.75;4976850;28;20564;-65
2023/02/04 09:40:42;;;;;;;5.67;0.80;;;;;;;3.15;96.84;103072.69;4976924;28;20485;-65
2023/02/04 09:43:13;;;;;;;4.50;0.70;;;;;;;3.21;95.54;103071.06;4977198;28;20430;-65
2023/02/04 09:45:40;;;;;;;4.83;0.87;;;;;;;3.29;95.67;103079.00;4977154;28;20533;-65
2023/02/04 09:48:07;;;;;;;4.40;0.67;;;;;;;3.36;95.27;103079.03;4976522;28;20587;-66
2023/02/04 09:50:35;;;;;;;6.37;0.80;;;;;;;3.48;95.41;103085.56;4976749;28;20828;-64
2023/02/04 09:53:05;;;;;;;4.40;0.70;;;;;;;3.52;92.17;103082.31;4976946;28;20441;-66
2023/02/04 09:55:33;;;;;;;4.40;0.70;;;;;;;3.42;91.05;103078.31;4976928;28;20536;-66
2023/02/04 09:58:00;;;;;;;4.50;0.70;;;;;;;3.47;91.61;103081.22;4976882;28;20489;-66
2023/02/04 10:00:29;;;;;;;4.30;0.80;;;;;;;3.45;92.19;103083.25;4976793;28;20450;-65
2023/02/04 10:02:58;;;;;;;8.37;0.80;;;;;;;3.61;92.44;103077.66;4976316;28;20477;-66
2023/02/04 10:05:29;;;;;;;5.17;0.80;;;;;;;3.77;93.32;103076.56;4976730;28;20457;-66
2023/02/04 10:07:58;;;;;;;4.97;0.77;;;;;;;3.89;93.84;103082.19;4976627;28;20473;-65
2023/02/04 10:10:26;;;;;;;4.73;0.77;;;;;;;4.03;92.60;103086.66;4977090;28;20837;-66
2023/02/04 10:12:56;;;;;;;9.40;0.67;;;;;;;3.87;86.69;103086.94;4977050;28;20544;-65
2023/02/04 10:15:23;;;;;;;4.10;0.60;;;;;;;3.73;89.16;103088.69;4976630;28;20544;-66
2023/02/04 10:17:52;;;;;;;4.23;0.60;;;;;;;3.89;89.03;103092.91;4976304;28;20470;-66
2023/02/04 10:20:20;;;;;;;4.73;0.90;;;;;;;3.92;87.27;103100.59;4976670;28;20521;-66
2023/02/04 10:22:48;;;;;;;3.93;0.50;;;;;;;3.87;86.28;103092.31;4976405;28;20529;-65
2023/02/04 10:25:17;;;;;;;3.90;0.50;;;;;;;3.88;86.32;103094.78;4975414;28;20450;-66
2023/02/04 10:27:49;;;;;;;3.87;0.43;;;;;;;3.87;85.39;103103.03;4976086;28;20994;-65
2023/02/04 10:30:20;;;;;;;7.50;1.03;;;;;;;4.07;87.57;103109.34;4976369;28;20497;-66
2023/02/04 10:32:47;;;;;;;4.40;0.80;;;;;;;3.96;84.63;103108.03;4976303;28;20434;-67
2023/02/04 10:35:15;;;;;;;4.03;0.50;;;;;;;4.05;82.69;103114.91;4976093;28;20452;-66
2023/02/04 10:37:41;;;;;;;4.40;0.73;;;;;;;4.14;82.73;103110.25;4975877;28;20522;-67
2023/02/04 10:40:27;;;;;;;4.90;0.70;;;;;;;4.33;82.48;103119.44;4975871;28;20456;-67
2023/02/04 10:42:54;;;;;;;5.30;0.50;;;;;;;4.31;81.74;103110.78;4976443;28;20512;-67
2023/02/04 10:45:25;;;;;;;4.10;0.60;;;;;;;4.22;79.73;103118.16;4976135;28;20961;-66
2023/02/04 10:47:53;;;;;;;3.93;0.53;;;;;;;4.28;81.39;103119.22;4975816;28;21066;-66
2023/02/04 10:50:21;;;;;;;4.47;0.70;;;;;;;4.30;82.00;103106.44;4975919;28;20492;-67
2023/02/04 10:52:51;;;;;;;3.80;0.40;;;;;;;4.40;80.79;103117.63;4976038;28;20464;-66
2023/02/04 10:55:19;;;;;;;4.20;0.50;;;;;;;4.56;79.99;103121.88;4975630;28;20450;-67
2023/02/04 10:57:50;;;;;;;4.10;0.53;;;;;;;4.66;77.55;103122.34;4975717;28;20472;-66
2023/02/04 11:00:18;;;;;;;4.50;0.60;;;;;;;4.73;77.17;103119.66;4975727;28;20466;-67
2023/02/04 11:02:51;;;;;;;4.40;0.67;;;;;;;4.89;78.24;103121.19;4975877;28;20445;-66
2023/02/04 11:05:20;;;;;;;5.60;0.63;;;;;;;4.71;74.74;103127.94;4975852;28;20431;-66
2023/02/04 11:07:48;;;;;;;5.80;0.70;;;;;;;4.51;75.25;103127.81;4975433;28;21063;-67
2023/02/04 11:10:17;;;;;;;4.03;0.50;;;;;;;4.43;74.46;103133.34;4975368;28;20493;-67
2023/02/04 11:12:46;;;;;;;4.20;0.50;;;;;;;4.38;77.43;103137.63;4975677;28;20815;-66
2023/02/04 11:15:40;;;;;;;7.70;0.60;;;;;;;4.60;76.76;103135.72;4975655;28;20454;-67
2023/02/04 11:18:09;;;;;;;4.20;0.60;;;;;;;4.63;75.54;103130.78;4975283;28;20840;-68
2023/02/04 11:20:38;;;;;;;4.00;0.50;;;;;;;4.70;74.39;103134.34;4975538;28;20445;-67
2023/02/04 11:23:31;;;;;;;3.97;0.50;;;;;;;4.67;74.66;103131.22;4975625;28;20479;-67
2023/02/04 11:26:02;;;;;;;5.33;0.83;;;;;;;4.84;76.06;103137.09;4975436;28;20429;-67
2023/02/04 11:28:29;;;;;;;4.00;0.60;;;;;;;5.11;77.42;103136.16;4974991;28;20520;-66